createdAt,value
2023-10-03T06:24:11.428Z,18.41
2023-10-03T06:31:22.723Z,18.67
2023-10-03T06:33:52.245Z,18.90
2023-10-03T06:40:24.367Z,18.97
2023-10-03T06:42:51.799Z,19.16
2023-10-03T06:45:22.487Z,19.19
2023-10-03T06:51:14.037Z,19.31
2023-10-03T06:53:42.977Z,19.55
2023-10-03T06:56:10.419Z,19.69
2023-10-03T06:58:37.881Z,19.86
2023-10-03T07:05:06.561Z,19.93
2023-10-03T07:07:37.191Z,20.03
2023-10-03T07:10:05.408Z,20.12
2023-10-03T07:12:32.830Z,20.10
2023-10-03T07:15:00.348Z,20.18
2023-10-03T07:17:27.837Z,20.14
2023-10-03T07:19:55.346Z,20.19
2023-10-03T07:22:22.819Z,20.08
2023-10-03T07:24:52.509Z,20.30
2023-10-03T07:27:21.066Z,20.55
2023-10-03T07:29:48.691Z,20.48
2023-10-03T07:32:16.377Z,20.64
2023-10-03T07:34:45.184Z,20.73
2023-10-03T07:37:13.918Z,20.73
2023-10-03T07:39:41.524Z,20.74
2023-10-03T07:42:10.432Z,20.87
2023-10-03T07:44:38.027Z,20.92
2023-10-03T07:47:05.764Z,21.00
2023-10-03T07:49:33.516Z,20.93
2023-10-03T07:52:06.262Z,21.04
2023-10-03T07:54:33.865Z,20.97
2023-10-03T07:57:09.619Z,21.12
2023-10-03T07:59:37.141Z,21.32
2023-10-03T08:02:12.183Z,21.33
2023-10-03T08:04:42.448Z,21.29
2023-10-03T08:07:12.315Z,21.39
2023-10-03T08:09:39.770Z,21.45
2023-10-03T08:12:13.611Z,21.55
2023-10-03T08:14:43.018Z,21.68
2023-10-03T08:17:13.401Z,21.76
2023-10-03T08:19:41.758Z,21.78
2023-10-03T08:22:14.364Z,21.81
2023-10-03T08:24:45.855Z,21.94
2023-10-03T08:27:22.945Z,22.09
2023-10-03T08:29:52.890Z,22.29
2023-10-03T08:32:20.882Z,22.31
2023-10-03T08:34:48.680Z,22.43
2023-10-03T08:37:23.905Z,22.56
2023-10-03T08:39:53.581Z,22.60
2023-10-03T08:42:40.827Z,22.75
2023-10-03T08:45:22.657Z,22.93
2023-10-03T08:47:55.454Z,23.08
2023-10-03T08:50:35.494Z,22.97
2023-10-03T08:53:23.343Z,23.22
2023-10-03T08:55:51.631Z,23.38
2023-10-03T08:58:26.788Z,23.44
2023-10-03T09:01:00.637Z,23.65
2023-10-03T09:03:50.852Z,23.71
2023-10-03T09:06:25.044Z,23.91
2023-10-03T09:09:10.191Z,24.05
2023-10-03T09:11:46.413Z,23.95
2023-10-03T09:14:24.090Z,23.98
2023-10-03T09:17:00.595Z,24.30
2023-10-03T09:19:47.679Z,24.28
2023-10-03T09:22:33.220Z,24.68
2023-10-03T09:25:00.856Z,24.81
2023-10-03T09:27:32.896Z,25.06
2023-10-03T09:30:10.538Z,24.84
2023-10-03T09:32:41.759Z,24.98
2023-10-03T09:35:13.310Z,25.30
2023-10-03T09:37:46.736Z,25.49
2023-10-03T09:40:20.146Z,25.35
2023-10-03T09:42:52.582Z,25.43
2023-10-03T09:45:26.437Z,25.64
2023-10-03T09:47:59.895Z,25.75
2023-10-03T09:50:29.406Z,26.08
2023-10-03T09:53:02.921Z,25.83
2023-10-03T09:55:48.087Z,25.89
2023-10-03T09:58:25.654Z,26.12
2023-10-03T10:00:57.204Z,26.25
2023-10-03T10:03:35.036Z,26.71
2023-10-03T10:06:50.364Z,26.96
2023-10-03T10:09:36.176Z,26.78
2023-10-03T10:12:20.613Z,27.09
2023-10-03T10:15:02.312Z,27.20
2023-10-03T10:17:47.324Z,27.15
2023-10-03T10:20:39.770Z,27.51
2023-10-03T10:23:11.952Z,27.76
2023-10-03T10:25:51.611Z,27.65
2023-10-03T10:28:29.170Z,27.92
2023-10-03T10:31:18.953Z,27.80
2023-10-03T10:33:49.399Z,28.20
2023-10-03T10:36:20.212Z,27.88
2023-10-03T10:38:53.618Z,28.44
2023-10-03T10:41:25.936Z,28.22
2023-10-03T10:44:18.063Z,28.16
2023-10-03T10:46:53.397Z,28.02
2023-10-03T10:49:33.040Z,28.43
2023-10-03T10:52:14.275Z,28.70
2023-10-03T10:54:44.063Z,28.56
2023-10-03T10:57:17.613Z,28.47
2023-10-03T10:59:45.210Z,28.38
2023-10-03T11:02:22.532Z,29.09
2023-10-03T11:05:02.824Z,28.62
2023-10-03T11:07:34.726Z,28.55
2023-10-03T11:10:32.144Z,28.71
2023-10-03T11:13:05.321Z,28.55
2023-10-03T11:15:33.161Z,28.17
2023-10-03T11:18:00.805Z,28.62
2023-10-03T11:20:28.965Z,29.05
2023-10-03T11:22:57.303Z,28.65
2023-10-03T11:25:26.355Z,28.86
2023-10-03T11:27:55.719Z,28.93
2023-10-03T11:30:23.704Z,28.71
2023-10-03T11:32:52.182Z,28.65
2023-10-03T11:35:23.105Z,29.02
2023-10-03T11:37:52.584Z,29.25
2023-10-03T11:40:23.586Z,29.72
2023-10-03T11:43:04.117Z,29.79
2023-10-03T11:45:34.722Z,29.75
2023-10-03T11:48:12.579Z,29.78
2023-10-03T11:50:42.049Z,29.88
2023-10-03T11:53:10.287Z,29.91
2023-10-03T11:55:39.388Z,29.42
2023-10-03T11:58:07.624Z,29.96
2023-10-03T12:00:36.664Z,29.55
2023-10-03T12:03:07.263Z,29.41
2023-10-03T12:05:35.565Z,29.61
2023-10-03T12:08:06.291Z,29.97
2023-10-03T12:10:35.765Z,29.89
2023-10-03T12:13:04.045Z,29.45
2023-10-03T12:15:32.244Z,29.12
2023-10-03T12:18:01.192Z,29.16
2023-10-03T12:20:28.950Z,27.90
2023-10-03T12:22:56.485Z,28.30
2023-10-03T12:25:25.630Z,27.87
2023-10-03T12:27:53.147Z,27.94
2023-10-03T12:30:21.027Z,27.59
2023-10-03T12:32:51.528Z,27.54
2023-10-03T12:35:19.723Z,27.46
2023-10-03T12:37:49.972Z,27.51
2023-10-03T12:40:20.307Z,27.55
2023-10-03T12:42:49.583Z,27.22
2023-10-03T12:45:22.561Z,27.17
2023-10-03T12:47:56.309Z,26.98
2023-10-03T12:50:29.054Z,27.22
2023-10-03T12:53:02.681Z,27.27
2023-10-03T12:55:34.900Z,26.81
2023-10-03T12:58:03.987Z,27.27
2023-10-03T13:00:31.504Z,26.77
2023-10-03T13:03:01.427Z,26.36
2023-10-03T13:05:29.132Z,26.80
2023-10-03T13:07:56.571Z,27.05
2023-10-03T13:10:27.918Z,26.60
2023-10-03T13:12:58.139Z,26.87
2023-10-03T13:15:25.656Z,26.85
2023-10-03T13:17:54.553Z,26.67
2023-10-03T13:20:26.299Z,26.54
2023-10-03T13:22:55.308Z,26.71
2023-10-03T13:25:23.037Z,26.54
2023-10-03T13:27:54.628Z,26.99
2023-10-03T13:30:26.813Z,26.64
2023-10-03T13:32:57.168Z,26.49
2023-10-03T13:35:25.484Z,26.79
2023-10-03T13:37:54.357Z,26.75
2023-10-03T13:40:23.231Z,26.35
2023-10-03T13:42:52.376Z,26.58
2023-10-03T13:45:21.184Z,26.40
2023-10-03T13:47:50.863Z,26.22
2023-10-03T13:50:19.373Z,26.23
2023-10-03T13:52:53.021Z,26.03
2023-10-03T13:55:24.558Z,26.20
2023-10-03T13:57:54.699Z,26.10
2023-10-03T14:00:22.460Z,26.29
2023-10-03T14:02:52.291Z,25.78
2023-10-03T14:05:20.808Z,26.17
2023-10-03T14:07:48.472Z,26.13
2023-10-03T14:10:17.556Z,25.64
2023-10-03T14:12:45.872Z,25.89
2023-10-03T14:15:21.585Z,25.89
2023-10-03T14:17:51.561Z,25.83
2023-10-03T14:20:21.266Z,25.75
2023-10-03T14:22:48.810Z,25.83
2023-10-03T14:25:16.362Z,26.02
2023-10-03T14:27:45.684Z,26.17
2023-10-03T14:30:14.450Z,26.19
2023-10-03T14:32:42.846Z,25.94
2023-10-03T14:35:13.730Z,25.77
2023-10-03T14:37:42.259Z,26.20
2023-10-03T14:40:17.582Z,26.43
2023-10-03T14:42:51.229Z,25.88
2023-10-03T14:45:20.879Z,25.94
2023-10-03T14:47:49.460Z,26.06
2023-10-03T14:50:17.250Z,26.06
2023-10-03T14:52:44.688Z,25.70
2023-10-03T14:55:12.267Z,26.03
2023-10-03T14:57:40.338Z,25.80
2023-10-03T15:00:09.386Z,25.93
2023-10-03T15:02:37.096Z,25.76
2023-10-03T15:05:07.482Z,26.23
2023-10-03T15:07:35.885Z,26.52
2023-10-03T15:10:04.373Z,26.20
2023-10-03T15:12:31.865Z,25.62
2023-10-03T15:15:00.058Z,25.98
2023-10-03T15:17:27.948Z,25.85
2023-10-03T15:19:55.639Z,25.65
2023-10-03T15:22:23.164Z,25.78
2023-10-03T15:24:50.634Z,25.70
2023-10-03T15:27:20.867Z,25.71
2023-10-03T15:29:48.547Z,25.56
2023-10-03T15:32:16.141Z,25.35
2023-10-03T15:34:43.614Z,24.68
2023-10-03T15:37:13.484Z,24.94
2023-10-03T15:39:40.994Z,24.68
2023-10-03T15:42:08.458Z,25.10
2023-10-03T15:44:35.909Z,24.57
2023-10-03T15:47:03.366Z,24.41
2023-10-03T15:49:31.109Z,24.52
2023-10-03T15:51:58.586Z,24.30
2023-10-03T15:54:26.052Z,23.91
2023-10-03T15:56:54.945Z,23.22
2023-10-03T15:59:22.993Z,23.51
2023-10-03T16:01:51.150Z,23.59
2023-10-03T16:04:21.384Z,23.64
2023-10-03T16:06:48.888Z,23.29
2023-10-03T16:09:16.516Z,23.09
2023-10-03T16:11:45.923Z,22.85
2023-10-03T16:14:16.738Z,22.95
2023-10-03T16:16:45.437Z,22.89
2023-10-03T16:19:14.366Z,22.64
2023-10-03T16:21:43.103Z,22.86
2023-10-03T16:24:12.039Z,22.56
2023-10-03T16:26:42.274Z,22.32
2023-10-03T16:29:09.908Z,22.45
2023-10-03T16:31:37.890Z,22.78
2023-10-03T16:34:06.240Z,22.28
2023-10-03T16:36:35.218Z,22.04
2023-10-03T16:39:03.058Z,22.28
2023-10-03T16:41:32.927Z,22.15
2023-10-03T16:44:03.151Z,22.43
2023-10-03T16:46:33.456Z,22.05
2023-10-03T16:49:04.321Z,22.20
2023-10-03T16:51:35.178Z,22.07
2023-10-03T16:54:04.537Z,21.91
2023-10-03T16:56:32.318Z,21.68
2023-10-03T16:58:59.858Z,21.77
2023-10-03T17:01:27.823Z,21.60
2023-10-03T17:03:58.748Z,21.71
2023-10-03T17:06:27.019Z,21.45
2023-10-03T17:08:54.634Z,21.66
2023-10-03T17:11:22.457Z,21.84
2023-10-03T17:13:49.962Z,21.32
2023-10-03T17:16:18.588Z,21.52
2023-10-03T17:18:46.573Z,21.65
2023-10-03T17:21:15.254Z,21.55
2023-10-03T17:23:42.890Z,21.50
2023-10-03T17:26:17.405Z,21.59
2023-10-03T17:28:47.658Z,21.44
2023-10-03T17:31:15.197Z,21.32
2023-10-03T17:33:43.223Z,21.78
2023-10-03T17:36:10.928Z,21.68
2023-10-03T17:38:38.417Z,21.85
2023-10-03T17:41:08.027Z,22.12
2023-10-03T17:43:35.866Z,22.46
2023-10-03T17:46:04.820Z,21.53
2023-10-03T17:48:33.135Z,21.56
2023-10-03T17:51:01.104Z,21.47
2023-10-03T17:53:28.564Z,21.49
2023-10-03T17:55:56.923Z,21.63
2023-10-03T17:58:24.358Z,21.77
2023-10-03T18:00:51.967Z,21.81
2023-10-03T18:03:22.645Z,21.47
2023-10-03T18:05:51.776Z,22.11
2023-10-03T18:08:19.224Z,22.30
2023-10-03T18:10:46.743Z,22.08
2023-10-03T18:13:14.308Z,21.29
2023-10-03T18:15:41.742Z,21.34
2023-10-03T18:18:09.464Z,21.49
2023-10-03T18:20:37.056Z,21.88
2023-10-03T18:23:04.828Z,22.23
2023-10-03T18:25:32.259Z,22.27
2023-10-03T18:28:00.816Z,22.55
2023-10-03T18:30:30.488Z,22.65
2023-10-03T18:33:01.025Z,22.66
2023-10-03T18:35:29.074Z,22.74
2023-10-03T18:37:57.347Z,22.70
2023-10-03T18:40:24.830Z,22.52
2023-10-03T18:42:52.731Z,22.19
2023-10-03T18:45:20.652Z,22.52
2023-10-03T18:47:48.251Z,22.65
2023-10-03T18:50:16.423Z,22.14
2023-10-03T18:52:43.935Z,22.25
2023-10-03T18:55:13.224Z,21.82
2023-10-03T18:57:42.053Z,22.06
2023-10-03T19:00:13.309Z,21.83
2023-10-03T19:02:41.546Z,21.94
2023-10-03T19:05:10.484Z,21.60
2023-10-03T19:07:41.139Z,21.08
2023-10-03T19:10:18.322Z,21.47
2023-10-03T19:12:45.764Z,21.21
2023-10-03T19:15:13.624Z,21.39
2023-10-03T19:17:41.364Z,21.43
2023-10-03T19:20:10.769Z,21.85
2023-10-03T19:22:39.303Z,22.18
2023-10-03T19:25:08.841Z,21.90
2023-10-03T19:27:41.934Z,21.88
2023-10-03T19:30:16.616Z,21.97
2023-10-03T19:32:45.768Z,22.06
2023-10-03T19:35:13.224Z,21.89
2023-10-03T19:37:42.600Z,21.98
2023-10-03T19:40:12.306Z,21.67
2023-10-03T19:42:39.956Z,21.56
2023-10-03T19:45:09.110Z,21.70
2023-10-03T19:47:36.650Z,21.44
2023-10-03T19:50:08.857Z,20.92
2023-10-03T19:52:39.552Z,21.33
2023-10-03T19:55:10.182Z,21.49
2023-10-03T19:57:39.565Z,21.36
2023-10-03T20:00:12.792Z,20.79
2023-10-03T20:02:41.445Z,20.79
2023-10-03T20:05:09.673Z,20.94
2023-10-03T20:07:37.174Z,20.24
2023-10-03T20:10:05.128Z,20.36
2023-10-03T20:12:34.359Z,20.93
2023-10-03T20:15:01.972Z,20.74
2023-10-03T20:17:29.548Z,21.20
2023-10-03T20:19:57.026Z,21.36
2023-10-03T20:22:24.954Z,21.42
2023-10-03T20:24:52.444Z,21.34
2023-10-03T20:27:19.958Z,21.43
2023-10-03T20:29:47.447Z,21.30
2023-10-03T20:32:14.978Z,20.65
2023-10-03T20:34:42.394Z,20.90
2023-10-03T20:37:11.754Z,21.00
2023-10-03T20:39:39.195Z,21.13
2023-10-03T20:42:06.676Z,21.13
2023-10-03T20:44:34.207Z,21.13
2023-10-03T20:47:05.749Z,21.04
2023-10-03T20:49:33.191Z,20.95
2023-10-03T20:52:00.997Z,20.92
2023-10-03T20:54:28.478Z,20.80
2023-10-03T20:56:55.983Z,21.02
2023-10-03T20:59:23.469Z,20.82
2023-10-03T21:01:52.069Z,20.77
2023-10-03T21:04:19.718Z,20.92
2023-10-03T21:06:48.254Z,20.95
2023-10-03T21:09:22.161Z,20.94
2023-10-03T21:11:50.566Z,20.99
2023-10-03T21:14:18.200Z,21.05
2023-10-03T21:16:45.656Z,21.16
2023-10-03T21:19:13.241Z,21.06
2023-10-03T21:21:40.714Z,20.94
2023-10-03T21:24:11.052Z,20.72
2023-10-03T21:26:38.562Z,20.76
2023-10-03T21:29:07.201Z,20.66
2023-10-03T21:31:36.052Z,20.62
2023-10-03T21:34:03.542Z,20.69
2023-10-03T21:36:31.058Z,20.92
2023-10-03T21:38:58.632Z,20.81
2023-10-03T21:41:26.167Z,20.75
2023-10-03T21:43:53.807Z,20.82
2023-10-03T21:46:21.650Z,20.79
2023-10-03T21:48:53.168Z,20.74
2023-10-03T21:51:24.450Z,20.74
2023-10-03T21:53:51.973Z,20.68
2023-10-03T21:56:19.441Z,20.68
2023-10-03T21:58:47.768Z,20.71
2023-10-03T22:01:17.563Z,20.77
2023-10-03T22:03:48.142Z,20.57
2023-10-03T22:06:15.683Z,20.77
2023-10-03T22:08:43.641Z,20.63
2023-10-03T22:11:11.446Z,20.71
2023-10-03T22:13:38.957Z,20.52
2023-10-03T22:16:06.571Z,20.53
2023-10-03T22:18:39.139Z,20.62
2023-10-03T22:21:08.999Z,20.60
2023-10-03T22:23:36.676Z,20.48
2023-10-03T22:26:06.713Z,20.59
2023-10-03T22:28:34.336Z,20.49
2023-10-03T22:31:02.036Z,20.33
2023-10-03T22:33:29.627Z,20.14
2023-10-03T22:36:02.856Z,20.28
2023-10-03T22:38:30.898Z,20.33
2023-10-03T22:41:05.018Z,20.29
2023-10-03T22:43:32.450Z,20.24
2023-10-03T22:46:00.429Z,20.22
2023-10-03T22:48:28.323Z,20.15
2023-10-03T22:50:55.815Z,20.15
2023-10-03T22:53:23.348Z,20.27
2023-10-03T22:55:50.804Z,20.14
2023-10-03T22:58:18.282Z,20.22
2023-10-03T23:00:46.156Z,20.15
2023-10-03T23:03:15.137Z,20.17
2023-10-03T23:05:43.235Z,20.14
2023-10-03T23:08:10.689Z,19.92
2023-10-03T23:10:38.548Z,20.08
2023-10-03T23:13:07.112Z,19.99
2023-10-03T23:15:34.868Z,19.97
2023-10-03T23:18:02.988Z,19.85
2023-10-03T23:20:30.601Z,19.84
2023-10-03T23:22:58.129Z,19.93
2023-10-03T23:25:25.663Z,19.97
2023-10-03T23:27:53.162Z,19.97
2023-10-03T23:30:20.757Z,19.79
2023-10-03T23:32:48.251Z,19.87
2023-10-03T23:35:15.773Z,19.78
2023-10-03T23:37:43.220Z,19.91
2023-10-03T23:40:17.144Z,19.91
2023-10-03T23:42:45.655Z,19.83
2023-10-03T23:45:15.616Z,19.79
2023-10-03T23:47:43.669Z,19.67
2023-10-03T23:50:20.118Z,19.74
2023-10-03T23:52:47.978Z,19.74
2023-10-03T23:55:19.537Z,19.80
2023-10-03T23:57:50.627Z,19.83
